Terminal Aerodrome Forecast
Issued by NWS Shreveport, LA

Home | Current Version | Previous Version | Text Only | Print | Product List | Glossary On
Versions: 1 2 3 4 5 6 7 8 9 10 11 12 13 14 15 16 17
513
FTUS44 KSHV 041341 AAA
TAFTXK
TAF AMD
KTXK 041341Z 0414/0512 02005KT 2SM BR VCSH OVC003
      TEMPO 0414/0415 4SM BR OVC004
     FM041500 34005KT 6SM BR VCSH OVC005
      TEMPO 0415/0418 5SM -RA BR OVC004
     FM041800 36006KT P6SM BKN010 OVC020
     FM050300 04004KT P6SM OVC015
     FM050900 06007KT 5SM -RA BR BKN009 OVC015=

USA.gov is the U.S. government's official web portal to all federal, state and local government web resources and services.